sensor_id;sensor_type;location;lat;lon;timestamp;P1;durP1;ratioP1;P2;durP2;ratioP2
1336;SDS011;662;48.814;9.318;2023-11-19T00:02:22;3.33;;;3.03;;
1336;SDS011;662;48.814;9.318;2023-11-19T00:04:48;4.87;;;2.83;;
1336;SDS011;662;48.814;9.318;2023-11-19T00:07:14;3.00;;;2.43;;
1336;SDS011;662;48.814;9.318;2023-11-19T00:09:40;3.60;;;2.73;;
1336;SDS011;662;48.814;9.318;2023-11-19T00:12:06;2.60;;;2.30;;
1336;SDS011;662;48.814;9.318;2023-11-19T00:14:32;2.60;;;2.40;;
1336;SDS011;662;48.814;9.318;2023-11-19T00:16:59;3.03;;;2.83;;
1336;SDS011;662;48.814;9.318;2023-11-19T00:19:25;3.53;;;2.50;;
1336;SDS011;662;48.814;9.318;2023-11-19T00:21:51;2.77;;;2.33;;
1336;SDS011;662;48.814;9.318;2023-11-19T00:24:17;3.03;;;2.57;;
1336;SDS011;662;48.814;9.318;2023-11-19T00:26:43;2.43;;;2.23;;
1336;SDS011;662;48.814;9.318;2023-11-19T00:29:09;3.20;;;2.20;;
1336;SDS011;662;48.814;9.318;2023-11-19T00:31:35;4.40;;;2.77;;
1336;SDS011;662;48.814;9.318;2023-11-19T00:34:02;3.80;;;2.70;;
1336;SDS011;662;48.814;9.318;2023-11-19T00:36:28;2.40;;;2.30;;
1336;SDS011;662;48.814;9.318;2023-11-19T00:38:54;2.60;;;2.40;;
1336;SDS011;662;48.814;9.318;2023-11-19T00:41:19;2.97;;;2.67;;
1336;SDS011;662;48.814;9.318;2023-11-19T00:43:46;2.50;;;2.30;;
1336;SDS011;662;48.814;9.318;2023-11-19T00:46:12;4.27;;;2.90;;
1336;SDS011;662;48.814;9.318;2023-11-19T00:48:38;3.57;;;3.20;;
1336;SDS011;662;48.814;9.318;2023-11-19T00:51:04;3.43;;;3.10;;
1336;SDS011;662;48.814;9.318;2023-11-19T00:53:30;2.83;;;2.57;;
1336;SDS011;662;48.814;9.318;2023-11-19T00:55:57;2.90;;;2.57;;
1336;SDS011;662;48.814;9.318;2023-11-19T00:58:22;3.33;;;2.70;;
1336;SDS011;662;48.814;9.318;2023-11-19T01:00:48;2.63;;;2.43;;
1336;SDS011;662;48.814;9.318;2023-11-19T01:03:14;2.33;;;2.23;;
1336;SDS011;662;48.814;9.318;2023-11-19T01:05:41;2.80;;;2.50;;
1336;SDS011;662;48.814;9.318;2023-11-19T01:08:06;2.37;;;2.13;;
1336;SDS011;662;48.814;9.318;2023-11-19T01:10:33;2.37;;;2.17;;
1336;SDS011;662;48.814;9.318;2023-11-19T01:12:59;2.43;;;2.20;;
1336;SDS011;662;48.814;9.318;2023-11-19T01:15:24;6.20;;;2.40;;
1336;SDS011;662;48.814;9.318;2023-11-19T01:17:51;2.40;;;2.20;;
1336;SDS011;662;48.814;9.318;2023-11-19T01:20:17;3.00;;;2.00;;
1336;SDS011;662;48.814;9.318;2023-11-19T01:22:43;2.73;;;2.50;;
1336;SDS011;662;48.814;9.318;2023-11-19T01:25:09;2.33;;;2.23;;
1336;SDS011;662;48.814;9.318;2023-11-19T01:27:35;2.80;;;2.17;;
1336;SDS011;662;48.814;9.318;2023-11-19T01:30:01;2.13;;;1.93;;
1336;SDS011;662;48.814;9.318;2023-11-19T01:32:34;1.67;;;1.57;;
1336;SDS011;662;48.814;9.318;2023-11-19T01:35:01;2.00;;;1.90;;
1336;SDS011;662;48.814;9.318;2023-11-19T01:37:27;1.73;;;1.63;;
1336;SDS011;662;48.814;9.318;2023-11-19T01:39:53;2.70;;;1.60;;
1336;SDS011;662;48.814;9.318;2023-11-19T01:42:18;1.30;;;1.20;;
1336;SDS011;662;48.814;9.318;2023-11-19T01:44:54;2.20;;;2.00;;
1336;SDS011;662;48.814;9.318;2023-11-19T01:47:24;2.17;;;1.97;;
1336;SDS011;662;48.814;9.318;2023-11-19T01:49:51;2.10;;;1.90;;
1336;SDS011;662;48.814;9.318;2023-11-19T01:52:17;2.03;;;1.93;;
1336;SDS011;662;48.814;9.318;2023-11-19T01:54:43;1.70;;;1.60;;
1336;SDS011;662;48.814;9.318;2023-11-19T01:57:10;1.67;;;1.57;;
1336;SDS011;662;48.814;9.318;2023-11-19T01:59:36;1.50;;;1.40;;
1336;SDS011;662;48.814;9.318;2023-11-19T02:02:03;1.90;;;1.70;;
1336;SDS011;662;48.814;9.318;2023-11-19T02:04:30;1.77;;;1.60;;
1336;SDS011;662;48.814;9.318;2023-11-19T02:06:56;0.90;;;0.90;;
1336;SDS011;662;48.814;9.318;2023-11-19T02:09:23;1.90;;;1.40;;
1336;SDS011;662;48.814;9.318;2023-11-19T02:11:49;1.20;;;1.20;;
1336;SDS011;662;48.814;9.318;2023-11-19T02:14:16;1.90;;;1.80;;
1336;SDS011;662;48.814;9.318;2023-11-19T02:16:43;3.53;;;2.50;;
1336;SDS011;662;48.814;9.318;2023-11-19T02:19:09;1.97;;;1.80;;
1336;SDS011;662;48.814;9.318;2023-11-19T02:21:36;2.67;;;2.10;;
1336;SDS011;662;48.814;9.318;2023-11-19T02:24:05;2.27;;;2.07;;
1336;SDS011;662;48.814;9.318;2023-11-19T02:29:04;2.40;;;2.20;;
1336;SDS011;662;48.814;9.318;2023-11-19T02:31:31;2.30;;;2.00;;
1336;SDS011;662;48.814;9.318;2023-11-19T02:33:57;1.60;;;1.50;;
1336;SDS011;662;48.814;9.318;2023-11-19T02:36:25;2.87;;;2.30;;
1336;SDS011;662;48.814;9.318;2023-11-19T02:38:50;2.20;;;2.00;;
1336;SDS011;662;48.814;9.318;2023-11-19T02:41:16;2.47;;;2.27;;
1336;SDS011;662;48.814;9.318;2023-11-19T02:43:41;2.90;;;2.33;;
1336;SDS011;662;48.814;9.318;2023-11-19T02:46:07;2.30;;;1.90;;
1336;SDS011;662;48.814;9.318;2023-11-19T02:48:33;2.57;;;2.37;;
1336;SDS011;662;48.814;9.318;2023-11-19T02:51:02;3.40;;;2.80;;
1336;SDS011;662;48.814;9.318;2023-11-19T02:53:29;3.93;;;3.63;;
1336;SDS011;662;48.814;9.318;2023-11-19T02:55:55;3.00;;;2.80;;
1336;SDS011;662;48.814;9.318;2023-11-19T02:58:27;4.20;;;3.90;;
1336;SDS011;662;48.814;9.318;2023-11-19T03:00:53;4.60;;;4.30;;
1336;SDS011;662;48.814;9.318;2023-11-19T03:03:25;5.10;;;4.70;;
1336;SDS011;662;48.814;9.318;2023-11-19T03:05:56;4.67;;;3.17;;
1336;SDS011;662;48.814;9.318;2023-11-19T03:08:24;2.33;;;2.23;;
1336;SDS011;662;48.814;9.318;2023-11-19T03:10:49;3.60;;;2.40;;
1336;SDS011;662;48.814;9.318;2023-11-19T03:13:15;3.77;;;2.20;;
1336;SDS011;662;48.814;9.318;2023-11-19T03:15:42;2.77;;;2.30;;
1336;SDS011;662;48.814;9.318;2023-11-19T03:18:08;3.03;;;2.73;;
1336;SDS011;662;48.814;9.318;2023-11-19T03:20:34;3.40;;;2.50;;
1336;SDS011;662;48.814;9.318;2023-11-19T03:22:59;2.43;;;2.23;;
1336;SDS011;662;48.814;9.318;2023-11-19T03:25:26;2.37;;;2.17;;
1336;SDS011;662;48.814;9.318;2023-11-19T03:27:58;1.97;;;1.87;;
1336;SDS011;662;48.814;9.318;2023-11-19T03:30:23;2.27;;;2.07;;
1336;SDS011;662;48.814;9.318;2023-11-19T03:32:49;1.80;;;1.70;;
1336;SDS011;662;48.814;9.318;2023-11-19T03:35:15;1.93;;;1.83;;
1336;SDS011;662;48.814;9.318;2023-11-19T03:37:41;1.90;;;1.80;;
1336;SDS011;662;48.814;9.318;2023-11-19T03:40:06;1.80;;;1.70;;
1336;SDS011;662;48.814;9.318;2023-11-19T03:42:32;1.87;;;1.77;;
1336;SDS011;662;48.814;9.318;2023-11-19T03:44:58;2.50;;;1.67;;
1336;SDS011;662;48.814;9.318;2023-11-19T03:47:24;1.77;;;1.60;;
1336;SDS011;662;48.814;9.318;2023-11-19T03:49:50;3.00;;;1.90;;
1336;SDS011;662;48.814;9.318;2023-11-19T03:52:16;1.50;;;1.40;;
1336;SDS011;662;48.814;9.318;2023-11-19T03:54:42;2.97;;;1.60;;
1336;SDS011;662;48.814;9.318;2023-11-19T03:57:08;1.20;;;1.13;;
1336;SDS011;662;48.814;9.318;2023-11-19T03:59:35;1.40;;;1.30;;
1336;SDS011;662;48.814;9.318;2023-11-19T04:02:01;1.30;;;1.20;;
1336;SDS011;662;48.814;9.318;2023-11-19T04:04:27;1.37;;;1.37;;
1336;SDS011;662;48.814;9.318;2023-11-19T04:06:54;1.33;;;1.10;;
1336;SDS011;662;48.814;9.318;2023-11-19T04:09:20;1.33;;;1.23;;
1336;SDS011;662;48.814;9.318;2023-11-19T04:11:46;1.30;;;1.20;;
1336;SDS011;662;48.814;9.318;2023-11-19T04:14:12;1.73;;;1.63;;
1336;SDS011;662;48.814;9.318;2023-11-19T04:16:38;1.47;;;1.37;;
1336;SDS011;662;48.814;9.318;2023-11-19T04:19:04;2.20;;;1.40;;
1336;SDS011;662;48.814;9.318;2023-11-19T04:21:30;1.40;;;1.30;;
1336;SDS011;662;48.814;9.318;2023-11-19T04:23:56;1.90;;;1.50;;
1336;SDS011;662;48.814;9.318;2023-11-19T04:26:21;3.40;;;1.53;;
1336;SDS011;662;48.814;9.318;2023-11-19T04:28:47;1.87;;;1.70;;
1336;SDS011;662;48.814;9.318;2023-11-19T04:31:14;1.90;;;1.80;;
1336;SDS011;662;48.814;9.318;2023-11-19T04:33:41;2.00;;;1.80;;
1336;SDS011;662;48.814;9.318;2023-11-19T04:36:07;2.67;;;2.23;;
1336;SDS011;662;48.814;9.318;2023-11-19T04:38:33;2.17;;;2.00;;
1336;SDS011;662;48.814;9.318;2023-11-19T04:40:59;2.20;;;2.07;;
1336;SDS011;662;48.814;9.318;2023-11-19T04:43:25;1.63;;;0.90;;
1336;SDS011;662;48.814;9.318;2023-11-19T04:45:51;0.60;;;0.60;;
1336;SDS011;662;48.814;9.318;2023-11-19T04:48:16;0.60;;;0.60;;
1336;SDS011;662;48.814;9.318;2023-11-19T04:50:42;0.60;;;0.60;;
1336;SDS011;662;48.814;9.318;2023-11-19T04:53:08;0.50;;;0.50;;
1336;SDS011;662;48.814;9.318;2023-11-19T04:55:33;0.63;;;0.63;;
1336;SDS011;662;48.814;9.318;2023-11-19T04:57:59;0.60;;;0.60;;
1336;SDS011;662;48.814;9.318;2023-11-19T05:00:24;0.50;;;0.50;;
1336;SDS011;662;48.814;9.318;2023-11-19T05:02:50;0.50;;;0.50;;
1336;SDS011;662;48.814;9.318;2023-11-19T05:05:16;0.60;;;0.50;;
1336;SDS011;662;48.814;9.318;2023-11-19T05:07:42;1.30;;;0.87;;
1336;SDS011;662;48.814;9.318;2023-11-19T05:10:08;0.60;;;0.50;;
1336;SDS011;662;48.814;9.318;2023-11-19T05:12:34;0.60;;;0.60;;
1336;SDS011;662;48.814;9.318;2023-11-19T05:14:59;0.60;;;0.60;;
1336;SDS011;662;48.814;9.318;2023-11-19T05:17:25;0.60;;;0.50;;
1336;SDS011;662;48.814;9.318;2023-11-19T05:19:51;1.13;;;0.50;;
1336;SDS011;662;48.814;9.318;2023-11-19T05:22:16;0.60;;;0.60;;
1336;SDS011;662;48.814;9.318;2023-11-19T05:24:42;0.50;;;0.50;;
1336;SDS011;662;48.814;9.318;2023-11-19T05:27:08;0.50;;;0.50;;
1336;SDS011;662;48.814;9.318;2023-11-19T05:29:36;0.50;;;0.50;;
1336;SDS011;662;48.814;9.318;2023-11-19T05:32:04;0.40;;;0.40;;
1336;SDS011;662;48.814;9.318;2023-11-19T05:34:30;0.83;;;0.40;;
1336;SDS011;662;48.814;9.318;2023-11-19T05:36:55;0.50;;;0.50;;
1336;SDS011;662;48.814;9.318;2023-11-19T05:39:22;0.40;;;0.40;;
1336;SDS011;662;48.814;9.318;2023-11-19T05:41:47;0.50;;;0.50;;
1336;SDS011;662;48.814;9.318;2023-11-19T05:44:13;0.47;;;0.47;;
1336;SDS011;662;48.814;9.318;2023-11-19T05:46:39;0.80;;;0.50;;
1336;SDS011;662;48.814;9.318;2023-11-19T05:49:07;1.80;;;0.70;;
1336;SDS011;662;48.814;9.318;2023-11-19T05:51:37;0.57;;;0.47;;
1336;SDS011;662;48.814;9.318;2023-11-19T05:54:04;0.60;;;0.60;;
1336;SDS011;662;48.814;9.318;2023-11-19T05:56:32;2.43;;;1.40;;
1336;SDS011;662;48.814;9.318;2023-11-19T05:58:58;1.20;;;1.00;;
1336;SDS011;662;48.814;9.318;2023-11-19T06:01:26;3.93;;;2.10;;
1336;SDS011;662;48.814;9.318;2023-11-19T06:03:52;2.70;;;1.30;;
1336;SDS011;662;48.814;9.318;2023-11-19T06:06:18;2.17;;;1.20;;
1336;SDS011;662;48.814;9.318;2023-11-19T06:08:43;1.03;;;0.93;;
1336;SDS011;662;48.814;9.318;2023-11-19T06:11:09;1.90;;;1.00;;
1336;SDS011;662;48.814;9.318;2023-11-19T06:13:39;2.13;;;1.00;;
1336;SDS011;662;48.814;9.318;2023-11-19T06:16:08;0.93;;;0.80;;
1336;SDS011;662;48.814;9.318;2023-11-19T06:18:34;0.73;;;0.60;;
1336;SDS011;662;48.814;9.318;2023-11-19T06:21:01;0.77;;;0.77;;
1336;SDS011;662;48.814;9.318;2023-11-19T06:23:26;1.77;;;0.90;;
1336;SDS011;662;48.814;9.318;2023-11-19T06:25:52;1.10;;;1.00;;
1336;SDS011;662;48.814;9.318;2023-11-19T06:28:18;0.60;;;0.60;;
1336;SDS011;662;48.814;9.318;2023-11-19T06:30:44;1.53;;;1.00;;
1336;SDS011;662;48.814;9.318;2023-11-19T06:33:12;1.20;;;1.10;;
1336;SDS011;662;48.814;9.318;2023-11-19T06:35:38;0.73;;;0.73;;
1336;SDS011;662;48.814;9.318;2023-11-19T06:38:04;0.60;;;0.60;;
1336;SDS011;662;48.814;9.318;2023-11-19T06:40:30;0.60;;;0.60;;
1336;SDS011;662;48.814;9.318;2023-11-19T06:42:56;0.80;;;0.80;;
1336;SDS011;662;48.814;9.318;2023-11-19T06:45:22;1.10;;;0.50;;
1336;SDS011;662;48.814;9.318;2023-11-19T06:47:47;0.50;;;0.50;;
1336;SDS011;662;48.814;9.318;2023-11-19T06:50:13;0.53;;;0.53;;
1336;SDS011;662;48.814;9.318;2023-11-19T06:52:40;0.50;;;0.50;;
1336;SDS011;662;48.814;9.318;2023-11-19T06:55:05;0.67;;;0.50;;
1336;SDS011;662;48.814;9.318;2023-11-19T06:57:31;0.80;;;0.70;;
1336;SDS011;662;48.814;9.318;2023-11-19T06:59:57;0.80;;;0.70;;
1336;SDS011;662;48.814;9.318;2023-11-19T07:02:24;0.73;;;0.70;;
1336;SDS011;662;48.814;9.318;2023-11-19T07:04:50;1.43;;;0.80;;
1336;SDS011;662;48.814;9.318;2023-11-19T07:07:16;1.20;;;1.10;;
1336;SDS011;662;48.814;9.318;2023-11-19T07:09:41;0.97;;;0.90;;
1336;SDS011;662;48.814;9.318;2023-11-19T07:12:08;0.77;;;0.70;;
1336;SDS011;662;48.814;9.318;2023-11-19T07:14:34;0.70;;;0.60;;
1336;SDS011;662;48.814;9.318;2023-11-19T07:16:59;0.70;;;0.60;;
1336;SDS011;662;48.814;9.318;2023-11-19T07:19:25;1.47;;;0.80;;
1336;SDS011;662;48.814;9.318;2023-11-19T07:21:51;1.53;;;0.60;;
1336;SDS011;662;48.814;9.318;2023-11-19T07:24:19;1.07;;;0.80;;
1336;SDS011;662;48.814;9.318;2023-11-19T07:26:53;0.80;;;0.80;;
1336;SDS011;662;48.814;9.318;2023-11-19T07:29:19;0.70;;;0.70;;
1336;SDS011;662;48.814;9.318;2023-11-19T07:31:46;1.43;;;0.57;;
1336;SDS011;662;48.814;9.318;2023-11-19T07:34:13;0.50;;;0.50;;
1336;SDS011;662;48.814;9.318;2023-11-19T07:36:39;0.80;;;0.77;;
1336;SDS011;662;48.814;9.318;2023-11-19T07:39:05;0.93;;;0.80;;
1336;SDS011;662;48.814;9.318;2023-11-19T07:41:33;0.70;;;0.70;;
1336;SDS011;662;48.814;9.318;2023-11-19T07:43:59;0.83;;;0.60;;
1336;SDS011;662;48.814;9.318;2023-11-19T07:46:25;0.63;;;0.63;;
1336;SDS011;662;48.814;9.318;2023-11-19T07:48:52;1.03;;;0.80;;
1336;SDS011;662;48.814;9.318;2023-11-19T07:51:17;0.93;;;0.60;;
1336;SDS011;662;48.814;9.318;2023-11-19T07:53:43;0.80;;;0.80;;
1336;SDS011;662;48.814;9.318;2023-11-19T07:56:09;0.80;;;0.60;;
1336;SDS011;662;48.814;9.318;2023-11-19T07:58:35;1.47;;;0.90;;
1336;SDS011;662;48.814;9.318;2023-11-19T08:01:01;0.83;;;0.70;;
1336;SDS011;662;48.814;9.318;2023-11-19T08:03:27;0.57;;;0.57;;
1336;SDS011;662;48.814;9.318;2023-11-19T08:05:57;0.60;;;0.60;;
1336;SDS011;662;48.814;9.318;2023-11-19T08:08:23;1.73;;;0.70;;
1336;SDS011;662;48.814;9.318;2023-11-19T08:10:51;0.60;;;0.60;;
1336;SDS011;662;48.814;9.318;2023-11-19T08:13:20;0.50;;;0.50;;
1336;SDS011;662;48.814;9.318;2023-11-19T08:15:47;1.03;;;0.50;;
1336;SDS011;662;48.814;9.318;2023-11-19T08:18:12;0.90;;;0.60;;
1336;SDS011;662;48.814;9.318;2023-11-19T08:20:38;1.20;;;1.10;;
1336;SDS011;662;48.814;9.318;2023-11-19T08:23:04;1.00;;;0.70;;
1336;SDS011;662;48.814;9.318;2023-11-19T08:25:30;0.70;;;0.70;;
1336;SDS011;662;48.814;9.318;2023-11-19T08:27:55;0.73;;;0.60;;
1336;SDS011;662;48.814;9.318;2023-11-19T08:30:21;1.00;;;0.87;;
1336;SDS011;662;48.814;9.318;2023-11-19T08:32:47;0.60;;;0.60;;
1336;SDS011;662;48.814;9.318;2023-11-19T08:35:12;0.60;;;0.60;;
1336;SDS011;662;48.814;9.318;2023-11-19T08:37:38;0.53;;;0.50;;
1336;SDS011;662;48.814;9.318;2023-11-19T08:40:07;0.70;;;0.70;;
1336;SDS011;662;48.814;9.318;2023-11-19T08:42:33;0.70;;;0.70;;
1336;SDS011;662;48.814;9.318;2023-11-19T08:44:59;0.77;;;0.63;;
1336;SDS011;662;48.814;9.318;2023-11-19T08:47:24;0.50;;;0.50;;
1336;SDS011;662;48.814;9.318;2023-11-19T08:49:50;0.60;;;0.60;;
1336;SDS011;662;48.814;9.318;2023-11-19T08:52:17;3.67;;;0.60;;
1336;SDS011;662;48.814;9.318;2023-11-19T08:54:43;0.73;;;0.60;;
1336;SDS011;662;48.814;9.318;2023-11-19T08:57:09;1.07;;;0.90;;
1336;SDS011;662;48.814;9.318;2023-11-19T08:59:35;0.90;;;0.90;;
1336;SDS011;662;48.814;9.318;2023-11-19T09:02:02;0.90;;;0.90;;
1336;SDS011;662;48.814;9.318;2023-11-19T09:04:32;0.70;;;0.70;;
1336;SDS011;662;48.814;9.318;2023-11-19T09:06:58;0.60;;;0.50;;
1336;SDS011;662;48.814;9.318;2023-11-19T09:09:24;0.67;;;0.50;;
1336;SDS011;662;48.814;9.318;2023-11-19T09:11:50;0.83;;;0.60;;
1336;SDS011;662;48.814;9.318;2023-11-19T09:14:15;0.70;;;0.70;;
1336;SDS011;662;48.814;9.318;2023-11-19T09:16:43;0.60;;;0.60;;
1336;SDS011;662;48.814;9.318;2023-11-19T09:19:09;0.73;;;0.70;;
1336;SDS011;662;48.814;9.318;2023-11-19T09:21:34;1.13;;;0.63;;
1336;SDS011;662;48.814;9.318;2023-11-19T09:24:03;0.77;;;0.77;;
1336;SDS011;662;48.814;9.318;2023-11-19T09:26:29;2.70;;;0.80;;
1336;SDS011;662;48.814;9.318;2023-11-19T09:28:55;1.13;;;1.00;;
1336;SDS011;662;48.814;9.318;2023-11-19T09:31:21;1.60;;;1.47;;
1336;SDS011;662;48.814;9.318;2023-11-19T09:33:47;1.33;;;1.10;;
1336;SDS011;662;48.814;9.318;2023-11-19T09:36:12;1.43;;;0.77;;
1336;SDS011;662;48.814;9.318;2023-11-19T09:38:42;1.23;;;1.10;;
1336;SDS011;662;48.814;9.318;2023-11-19T09:41:10;1.30;;;0.90;;
1336;SDS011;662;48.814;9.318;2023-11-19T09:43:40;2.90;;;1.30;;
1336;SDS011;662;48.814;9.318;2023-11-19T09:46:06;0.80;;;0.60;;
1336;SDS011;662;48.814;9.318;2023-11-19T09:48:36;1.27;;;0.70;;
1336;SDS011;662;48.814;9.318;2023-11-19T09:51:04;0.93;;;0.60;;
1336;SDS011;662;48.814;9.318;2023-11-19T09:53:31;1.23;;;1.13;;
1336;SDS011;662;48.814;9.318;2023-11-19T09:55:57;1.27;;;1.17;;
1336;SDS011;662;48.814;9.318;2023-11-19T09:58:25;0.77;;;0.77;;
1336;SDS011;662;48.814;9.318;2023-11-19T10:00:51;2.03;;;0.60;;
1336;SDS011;662;48.814;9.318;2023-11-19T10:03:17;0.77;;;0.67;;
1336;SDS011;662;48.814;9.318;2023-11-19T10:05:43;1.00;;;0.90;;
1336;SDS011;662;48.814;9.318;2023-11-19T10:08:08;0.60;;;0.60;;
1336;SDS011;662;48.814;9.318;2023-11-19T10:10:36;0.70;;;0.70;;
1336;SDS011;662;48.814;9.318;2023-11-19T10:13:02;1.07;;;0.70;;
1336;SDS011;662;48.814;9.318;2023-11-19T10:15:28;4.83;;;0.70;;
1336;SDS011;662;48.814;9.318;2023-11-19T10:18:02;0.80;;;0.60;;
1336;SDS011;662;48.814;9.318;2023-11-19T10:20:34;2.10;;;1.20;;
1336;SDS011;662;48.814;9.318;2023-11-19T10:23:01;0.87;;;0.80;;
1336;SDS011;662;48.814;9.318;2023-11-19T10:25:27;1.07;;;1.07;;
1336;SDS011;662;48.814;9.318;2023-11-19T10:27:54;1.83;;;0.73;;
1336;SDS011;662;48.814;9.318;2023-11-19T10:30:30;0.60;;;0.60;;
1336;SDS011;662;48.814;9.318;2023-11-19T10:35:32;0.70;;;0.70;;
1336;SDS011;662;48.814;9.318;2023-11-19T10:37:59;0.60;;;0.60;;
1336;SDS011;662;48.814;9.318;2023-11-19T10:40:38;0.57;;;0.57;;
1336;SDS011;662;48.814;9.318;2023-11-19T10:43:06;1.43;;;0.63;;
1336;SDS011;662;48.814;9.318;2023-11-19T10:45:33;2.03;;;0.77;;
1336;SDS011;662;48.814;9.318;2023-11-19T10:47:59;1.43;;;0.60;;
1336;SDS011;662;48.814;9.318;2023-11-19T10:50:26;2.83;;;0.80;;
1336;SDS011;662;48.814;9.318;2023-11-19T10:52:55;1.53;;;0.70;;
1336;SDS011;662;48.814;9.318;2023-11-19T10:55:28;1.50;;;1.07;;
1336;SDS011;662;48.814;9.318;2023-11-19T10:58:02;1.70;;;0.60;;
1336;SDS011;662;48.814;9.318;2023-11-19T11:00:38;1.10;;;0.73;;
1336;SDS011;662;48.814;9.318;2023-11-19T11:03:19;1.33;;;0.83;;
1336;SDS011;662;48.814;9.318;2023-11-19T11:05:47;0.50;;;0.50;;
1336;SDS011;662;48.814;9.318;2023-11-19T11:08:14;1.13;;;0.80;;
1336;SDS011;662;48.814;9.318;2023-11-19T11:10:54;1.13;;;0.93;;
1336;SDS011;662;48.814;9.318;2023-11-19T11:13:22;0.80;;;0.67;;
1336;SDS011;662;48.814;9.318;2023-11-19T11:15:58;1.43;;;0.87;;
1336;SDS011;662;48.814;9.318;2023-11-19T11:18:24;0.90;;;0.63;;
1336;SDS011;662;48.814;9.318;2023-11-19T11:21:14;0.63;;;0.63;;
1336;SDS011;662;48.814;9.318;2023-11-19T11:23:52;1.40;;;0.80;;
1336;SDS011;662;48.814;9.318;2023-11-19T11:37:47;1.70;;;0.73;;
1336;SDS011;662;48.814;9.318;2023-11-19T11:40:16;1.40;;;0.57;;
1336;SDS011;662;48.814;9.318;2023-11-19T11:42:43;1.53;;;0.73;;
1336;SDS011;662;48.814;9.318;2023-11-19T11:45:12;3.10;;;0.57;;
1336;SDS011;662;48.814;9.318;2023-11-19T11:55:24;1.57;;;0.80;;
1336;SDS011;662;48.814;9.318;2023-11-19T11:57:50;1.87;;;0.97;;
1336;SDS011;662;48.814;9.318;2023-11-19T12:00:49;1.50;;;0.90;;
1336;SDS011;662;48.814;9.318;2023-11-19T12:03:08;1.37;;;0.70;;
1336;SDS011;662;48.814;9.318;2023-11-19T12:05:43;2.63;;;0.70;;
1336;SDS011;662;48.814;9.318;2023-11-19T12:08:10;1.17;;;0.80;;
1336;SDS011;662;48.814;9.318;2023-11-19T12:10:47;1.77;;;0.73;;
1336;SDS011;662;48.814;9.318;2023-11-19T12:13:15;0.90;;;0.90;;
1336;SDS011;662;48.814;9.318;2023-11-19T12:18:23;0.80;;;0.70;;
1336;SDS011;662;48.814;9.318;2023-11-19T12:20:51;0.83;;;0.73;;
1336;SDS011;662;48.814;9.318;2023-11-19T12:23:16;0.67;;;0.60;;
1336;SDS011;662;48.814;9.318;2023-11-19T12:25:42;0.87;;;0.70;;
1336;SDS011;662;48.814;9.318;2023-11-19T12:28:13;1.23;;;0.90;;
1336;SDS011;662;48.814;9.318;2023-11-19T12:30:42;2.60;;;1.40;;
1336;SDS011;662;48.814;9.318;2023-11-19T12:33:08;3.37;;;0.90;;
1336;SDS011;662;48.814;9.318;2023-11-19T12:35:41;1.27;;;0.93;;
1336;SDS011;662;48.814;9.318;2023-11-19T12:38:08;1.50;;;1.00;;
1336;SDS011;662;48.814;9.318;2023-11-19T12:40:47;3.13;;;1.00;;
1336;SDS011;662;48.814;9.318;2023-11-19T12:43:30;2.80;;;1.10;;
1336;SDS011;662;48.814;9.318;2023-11-19T12:45:56;4.20;;;1.00;;
1336;SDS011;662;48.814;9.318;2023-11-19T12:48:21;1.00;;;0.60;;
1336;SDS011;662;48.814;9.318;2023-11-19T12:53:18;2.33;;;0.90;;
1336;SDS011;662;48.814;9.318;2023-11-19T12:55:44;1.33;;;0.70;;
1336;SDS011;662;48.814;9.318;2023-11-19T12:58:09;1.63;;;0.73;;
1336;SDS011;662;48.814;9.318;2023-11-19T13:00:35;4.60;;;0.93;;
1336;SDS011;662;48.814;9.318;2023-11-19T13:03:01;0.73;;;0.70;;
1336;SDS011;662;48.814;9.318;2023-11-19T13:05:28;2.50;;;0.73;;
1336;SDS011;662;48.814;9.318;2023-11-19T13:08:00;0.70;;;0.70;;
1336;SDS011;662;48.814;9.318;2023-11-19T13:10:30;0.93;;;0.70;;
1336;SDS011;662;48.814;9.318;2023-11-19T13:13:14;1.57;;;0.70;;
1336;SDS011;662;48.814;9.318;2023-11-19T13:15:39;1.03;;;0.57;;
1336;SDS011;662;48.814;9.318;2023-11-19T13:18:05;1.93;;;0.80;;
1336;SDS011;662;48.814;9.318;2023-11-19T13:20:31;0.60;;;0.60;;
1336;SDS011;662;48.814;9.318;2023-11-19T13:22:58;1.27;;;0.70;;
1336;SDS011;662;48.814;9.318;2023-11-19T13:25:28;0.70;;;0.67;;
1336;SDS011;662;48.814;9.318;2023-11-19T13:27:57;0.97;;;0.70;;
1336;SDS011;662;48.814;9.318;2023-11-19T13:30:23;0.80;;;0.60;;
1336;SDS011;662;48.814;9.318;2023-11-19T13:32:50;1.23;;;0.60;;
1336;SDS011;662;48.814;9.318;2023-11-19T13:35:16;1.33;;;0.70;;
1336;SDS011;662;48.814;9.318;2023-11-19T13:37:42;1.00;;;0.60;;
1336;SDS011;662;48.814;9.318;2023-11-19T13:40:08;0.70;;;0.70;;
1336;SDS011;662;48.814;9.318;2023-11-19T13:42:35;1.10;;;0.60;;
1336;SDS011;662;48.814;9.318;2023-11-19T13:45:04;0.73;;;0.60;;
1336;SDS011;662;48.814;9.318;2023-11-19T13:47:30;0.70;;;0.60;;
1336;SDS011;662;48.814;9.318;2023-11-19T13:49:56;2.00;;;0.83;;
1336;SDS011;662;48.814;9.318;2023-11-19T13:52:21;0.70;;;0.60;;
1336;SDS011;662;48.814;9.318;2023-11-19T13:54:47;1.37;;;0.80;;
1336;SDS011;662;48.814;9.318;2023-11-19T13:57:13;1.10;;;0.70;;
1336;SDS011;662;48.814;9.318;2023-11-19T13:59:41;1.00;;;0.77;;
1336;SDS011;662;48.814;9.318;2023-11-19T14:02:07;1.53;;;0.70;;
1336;SDS011;662;48.814;9.318;2023-11-19T14:04:33;1.63;;;0.87;;
1336;SDS011;662;48.814;9.318;2023-11-19T14:06:58;1.80;;;0.83;;
1336;SDS011;662;48.814;9.318;2023-11-19T14:09:24;1.03;;;0.80;;
1336;SDS011;662;48.814;9.318;2023-11-19T14:11:50;1.27;;;0.60;;
1336;SDS011;662;48.814;9.318;2023-11-19T14:14:16;2.73;;;1.03;;
1336;SDS011;662;48.814;9.318;2023-11-19T14:16:42;0.87;;;0.70;;
1336;SDS011;662;48.814;9.318;2023-11-19T14:19:07;2.07;;;1.10;;
1336;SDS011;662;48.814;9.318;2023-11-19T14:21:33;0.77;;;0.60;;
1336;SDS011;662;48.814;9.318;2023-11-19T14:23:59;0.90;;;0.70;;
1336;SDS011;662;48.814;9.318;2023-11-19T14:26:24;0.90;;;0.70;;
1336;SDS011;662;48.814;9.318;2023-11-19T14:28:50;1.37;;;1.27;;
1336;SDS011;662;48.814;9.318;2023-11-19T14:31:15;1.13;;;0.80;;
1336;SDS011;662;48.814;9.318;2023-11-19T14:33:41;0.50;;;0.50;;
1336;SDS011;662;48.814;9.318;2023-11-19T14:36:06;0.73;;;0.60;;
1336;SDS011;662;48.814;9.318;2023-11-19T14:38:33;3.13;;;0.73;;
1336;SDS011;662;48.814;9.318;2023-11-19T14:40:58;0.83;;;0.80;;
1336;SDS011;662;48.814;9.318;2023-11-19T14:43:24;1.53;;;0.90;;
1336;SDS011;662;48.814;9.318;2023-11-19T14:45:51;1.87;;;0.73;;
1336;SDS011;662;48.814;9.318;2023-11-19T14:48:17;0.80;;;0.67;;
1336;SDS011;662;48.814;9.318;2023-11-19T14:50:43;1.60;;;0.60;;
1336;SDS011;662;48.814;9.318;2023-11-19T14:53:09;0.83;;;0.70;;
1336;SDS011;662;48.814;9.318;2023-11-19T14:55:36;1.57;;;0.80;;
1336;SDS011;662;48.814;9.318;2023-11-19T14:58:01;1.33;;;0.90;;
1336;SDS011;662;48.814;9.318;2023-11-19T15:00:27;1.23;;;0.80;;
1336;SDS011;662;48.814;9.318;2023-11-19T15:02:53;0.80;;;0.60;;
1336;SDS011;662;48.814;9.318;2023-11-19T15:05:19;2.83;;;0.73;;
1336;SDS011;662;48.814;9.318;2023-11-19T15:07:45;1.47;;;0.90;;
1336;SDS011;662;48.814;9.318;2023-11-19T15:10:11;0.90;;;0.70;;
1336;SDS011;662;48.814;9.318;2023-11-19T15:12:37;1.43;;;0.77;;
1336;SDS011;662;48.814;9.318;2023-11-19T15:15:08;0.67;;;0.50;;
1336;SDS011;662;48.814;9.318;2023-11-19T15:17:35;2.20;;;0.77;;
1336;SDS011;662;48.814;9.318;2023-11-19T15:20:02;1.00;;;0.80;;
1336;SDS011;662;48.814;9.318;2023-11-19T15:22:29;1.70;;;0.90;;
1336;SDS011;662;48.814;9.318;2023-11-19T15:24:55;1.17;;;0.90;;
1336;SDS011;662;48.814;9.318;2023-11-19T15:27:20;0.60;;;0.60;;
1336;SDS011;662;48.814;9.318;2023-11-19T15:29:47;0.90;;;0.80;;
1336;SDS011;662;48.814;9.318;2023-11-19T15:32:13;1.90;;;0.80;;
1336;SDS011;662;48.814;9.318;2023-11-19T15:34:39;1.67;;;0.90;;
1336;SDS011;662;48.814;9.318;2023-11-19T15:37:06;3.33;;;1.00;;
1336;SDS011;662;48.814;9.318;2023-11-19T15:39:32;0.90;;;0.73;;
1336;SDS011;662;48.814;9.318;2023-11-19T15:41:58;1.73;;;1.10;;
1336;SDS011;662;48.814;9.318;2023-11-19T15:44:24;0.80;;;0.80;;
1336;SDS011;662;48.814;9.318;2023-11-19T15:46:50;1.27;;;0.80;;
1336;SDS011;662;48.814;9.318;2023-11-19T15:49:16;1.20;;;0.80;;
1336;SDS011;662;48.814;9.318;2023-11-19T15:51:41;3.47;;;1.00;;
1336;SDS011;662;48.814;9.318;2023-11-19T15:54:07;1.00;;;0.90;;
1336;SDS011;662;48.814;9.318;2023-11-19T15:56:33;1.37;;;1.00;;
1336;SDS011;662;48.814;9.318;2023-11-19T15:58:58;1.40;;;0.90;;